Time;durP1;ratioP1;P1;durP2;ratioP2;P2;SDS_P1;SDS_P2;PMS_P1;PMS_P2;Temp;Humidity;BMP_temperature;BMP_pressure;BME280_temperature;BME280_humidity;BME280_pressure;Samples;Min_cycle;Max_cycle;Signal;HPM_P1;HPM_P2
2021/01/23 00:00:22;;;;;;;12.35;8.70;;;;;;;0.82;85.45;98934.84;4991210;28;20046;-54
2021/01/23 00:02:49;;;;;;;17.58;10.38;;;;;;;0.84;85.51;98938.06;4975479;28;20113;-49
2021/01/23 00:05:18;;;;;;;15.32;9.18;;;;;;;0.82;85.37;98934.06;4989237;28;20042;-53
2021/01/23 00:07:44;;;;;;;16.60;8.63;;;;;;;0.79;85.67;98945.59;4969151;28;20047;-55
2021/01/23 00:10:11;;;;;;;12.40;8.15;;;;;;;0.77;85.72;98943.19;4976587;28;20671;-52
2021/01/23 00:12:38;;;;;;;11.40;8.10;;;;;;;0.76;86.13;98947.06;4994059;28;20057;-54
2021/01/23 00:15:05;;;;;;;11.93;8.65;;;;;;;0.83;85.90;98938.38;4993589;28;20287;-54
2021/01/23 00:17:31;;;;;;;12.85;8.45;;;;;;;0.84;86.03;98948.16;4983882;28;20061;-54
2021/01/23 00:19:58;;;;;;;13.77;7.63;;;;;;;0.83;85.93;98944.63;4977348;28;20056;-53
2021/01/23 00:22:24;;;;;;;13.45;7.95;;;;;;;0.82;86.13;98955.84;4994341;28;20053;-54
2021/01/23 00:24:50;;;;;;;11.38;7.85;;;;;;;0.86;86.06;98951.34;4993377;28;20034;-53
2021/01/23 00:27:17;;;;;;;17.05;8.13;;;;;;;0.82;85.80;98948.44;4993996;28;20089;-51
2021/01/23 00:29:43;;;;;;;13.25;7.70;;;;;;;0.71;85.70;98952.66;4993995;28;20046;-50
2021/01/23 00:32:09;;;;;;;9.00;6.47;;;;;;;0.65;86.05;98947.72;4994544;28;20051;-51
2021/01/23 00:34:36;;;;;;;13.35;7.88;;;;;;;0.59;85.99;98936.19;4993147;28;20058;-52
2021/01/23 00:37:02;;;;;;;12.63;7.63;;;;;;;0.56;86.09;98942.28;4993710;28;20057;-54
2021/01/23 00:39:29;;;;;;;14.52;6.53;;;;;;;0.52;85.86;98947.59;4994230;28;20038;-55
2021/01/23 00:41:55;;;;;;;13.27;8.07;;;;;;;0.52;85.74;98961.19;4993271;28;20121;-51
2021/01/23 00:44:21;;;;;;;14.45;7.93;;;;;;;0.50;85.58;98957.97;4994231;28;20448;-49
2021/01/23 00:46:47;;;;;;;12.20;7.75;;;;;;;0.50;85.68;98944.34;4993287;28;20742;-55
2021/01/23 00:49:14;;;;;;;12.43;8.20;;;;;;;0.53;85.94;98954.59;4993640;28;20093;-53
2021/01/23 00:51:40;;;;;;;12.50;7.28;;;;;;;0.52;85.93;98958.47;4992600;28;20058;-53
2021/01/23 00:54:07;;;;;;;13.52;7.35;;;;;;;0.52;86.17;98963.91;4992906;28;20050;-52
2021/01/23 00:56:33;;;;;;;10.13;6.18;;;;;;;0.52;86.01;98954.94;4994063;28;20049;-49
2021/01/23 00:58:59;;;;;;;13.80;6.78;;;;;;;0.53;86.27;98960.06;4964010;28;20061;-50
2021/01/23 01:01:28;;;;;;;11.18;7.25;;;;;;;0.57;86.25;98954.78;4992860;28;20058;-53
2021/01/23 01:03:55;;;;;;;12.68;6.05;;;;;;;0.58;86.02;98951.72;4992249;28;20084;-49
2021/01/23 01:06:21;;;;;;;13.23;7.07;;;;;;;0.63;85.96;98949.97;4993015;28;20042;-52
2021/01/23 01:08:48;;;;;;;16.33;7.30;;;;;;;0.64;86.00;98954.28;4974700;28;20037;-51
2021/01/23 01:11:14;;;;;;;13.73;6.22;;;;;;;0.64;85.80;98954.28;4993230;28;20089;-51
2021/01/23 01:13:40;;;;;;;10.13;5.88;;;;;;;0.58;85.87;98950.94;4993418;28;20108;-53
2021/01/23 01:16:07;;;;;;;14.63;6.53;;;;;;;0.56;86.15;98953.16;4992686;28;20133;-50
2021/01/23 01:18:33;;;;;;;11.05;6.88;;;;;;;0.58;85.93;98950.94;4976018;28;20046;-51
2021/01/23 01:21:00;;;;;;;8.23;6.05;;;;;;;0.61;86.08;98951.06;4976068;28;20093;-53
2021/01/23 01:23:27;;;;;;;10.20;6.35;;;;;;;0.62;85.79;98946.44;4983283;28;20093;-53
2021/01/23 01:25:53;;;;;;;13.00;6.07;;;;;;;0.57;85.81;98939.25;4984844;28;20054;-52
2021/01/23 01:28:20;;;;;;;14.77;6.78;;;;;;;0.56;85.73;98937.63;4993250;28;20045;-53
2021/01/23 01:30:47;;;;;;;12.25;6.03;;;;;;;0.52;85.56;98931.25;4992954;28;20448;-55
2021/01/23 01:33:13;;;;;;;12.13;6.10;;;;;;;0.47;85.51;98933.34;4992831;28;20050;-50
2021/01/23 01:35:40;;;;;;;12.57;5.88;;;;;;;0.43;85.40;98933.16;4991766;28;20388;-55
2021/01/23 01:38:07;;;;;;;9.65;5.05;;;;;;;0.40;85.52;98928.38;4993201;28;20081;-53
2021/01/23 01:40:34;;;;;;;14.02;6.68;;;;;;;0.34;85.44;98931.59;4992794;28;20038;-55
2021/01/23 01:43:00;;;;;;;12.50;5.93;;;;;;;0.29;85.62;98932.53;4991570;28;20563;-51
2021/01/23 01:45:26;;;;;;;12.10;6.40;;;;;;;0.27;85.59;98940.22;4992663;28;20065;-51
2021/01/23 01:47:54;;;;;;;11.95;7.35;;;;;;;0.26;85.69;98933.22;4961368;28;20043;-50
2021/01/23 01:50:20;;;;;;;11.85;6.30;;;;;;;0.24;86.07;98940.88;4987958;28;20053;-50
2021/01/23 01:52:51;;;;;;;11.50;6.50;;;;;;;0.27;85.88;98944.88;4990828;28;20067;-50
2021/01/23 01:55:19;;;;;;;9.13;5.57;;;;;;;0.23;85.89;98939.28;4992779;28;20440;-50
2021/01/23 01:57:45;;;;;;;11.50;5.95;;;;;;;0.20;85.60;98939.13;4974819;28;20113;-52
2021/01/23 02:00:14;;;;;;;8.85;6.15;;;;;;;0.23;85.75;98939.28;4977216;28;20054;-51
2021/01/23 02:02:53;;;;;;;11.80;5.90;;;;;;;0.19;85.71;98935.59;4992183;28;20096;-50
2021/01/23 02:05:41;;;;;;;11.02;5.75;;;;;;;0.17;85.75;98926.97;4975389;28;20038;-51
2021/01/23 02:08:17;;;;;;;11.48;5.50;;;;;;;0.18;85.21;98917.69;4976177;28;20044;-51
2021/01/23 02:10:54;;;;;;;13.05;6.90;;;;;;;0.19;85.10;98916.53;4968184;28;20069;-51
2021/01/23 02:13:28;;;;;;;13.18;6.55;;;;;;;0.20;85.15;98925.50;4991718;28;20097;-52
2021/01/23 02:16:17;;;;;;;14.52;6.60;;;;;;;0.19;85.27;98930.16;4991361;28;20408;-54
2021/01/23 02:18:58;;;;;;;13.18;6.72;;;;;;;0.16;85.06;98932.72;4991451;28;20489;-49
2021/01/23 02:22:03;;;;;;;14.00;6.50;;;;;;;0.15;85.20;98950.97;4990835;28;20065;-49
2021/01/23 02:24:30;;;;;;;11.38;6.05;;;;;;;0.15;85.47;98953.69;4980697;28;20109;-49
2021/01/23 02:27:15;;;;;;;9.98;5.70;;;;;;;0.16;84.92;98959.94;4992414;28;20050;-51
2021/01/23 02:29:50;;;;;;;9.75;6.40;;;;;;;0.13;85.17;98955.13;4991873;28;20046;-53
2021/01/23 02:32:20;;;;;;;8.73;5.38;;;;;;;0.10;85.11;98951.13;4991398;28;20058;-54
2021/01/23 02:34:47;;;;;;;18.42;6.53;;;;;;;0.07;85.17;98959.94;4991343;28;20121;-53
2021/01/23 02:37:14;;;;;;;13.15;6.25;;;;;;;0.05;85.32;98962.19;4991117;28;20128;-49
2021/01/23 02:39:41;;;;;;;8.65;5.53;;;;;;;0.03;85.40;98967.13;4992123;28;20069;-52
2021/01/23 02:42:08;;;;;;;10.50;5.80;;;;;;;-0.01;85.48;98968.88;4991211;28;20108;-52
2021/01/23 02:44:34;;;;;;;8.68;5.72;;;;;;;-0.03;85.25;98966.47;4991749;28;20077;-51
2021/01/23 02:47:01;;;;;;;13.63;5.88;;;;;;;-0.03;85.52;98962.97;4991905;28;20416;-49
2021/01/23 02:49:27;;;;;;;15.13;7.70;;;;;;;-0.03;85.42;98968.41;4989154;28;20481;-49
2021/01/23 02:52:02;;;;;;;12.43;6.35;;;;;;;-0.07;85.74;98970.16;4981366;28;20426;-55
2021/01/23 02:55:04;;;;;;;14.90;6.20;;;;;;;-0.09;85.70;98975.13;4991388;28;20046;-53
2021/01/23 02:57:31;;;;;;;14.52;8.40;;;;;;;-0.09;85.69;98975.13;4991526;28;20069;-52
2021/01/23 03:00:07;;;;;;;13.55;7.43;;;;;;;-0.09;85.68;98975.94;4991978;28;20377;-50
2021/01/23 03:02:41;;;;;;;18.10;8.63;;;;;;;-0.13;85.80;98990.44;4991601;28;20440;-49
2021/01/23 03:05:08;;;;;;;16.92;8.13;;;;;;;-0.13;85.71;98993.16;4991315;28;20049;-53
2021/01/23 03:07:35;;;;;;;15.73;8.18;;;;;;;-0.15;85.56;98990.78;4990514;28;20070;-51
2021/01/23 03:10:09;;;;;;;17.65;10.93;;;;;;;-0.15;85.60;98989.97;4991479;28;20054;-51
2021/01/23 03:12:36;;;;;;;13.65;7.22;;;;;;;-0.19;85.68;98989.03;4991271;28;20050;-52
2021/01/23 03:15:04;;;;;;;21.10;9.57;;;;;;;-0.20;85.69;98990.13;4974117;28;20077;-50
2021/01/23 03:17:31;;;;;;;18.95;8.90;;;;;;;-0.21;85.87;98988.50;4991770;28;20055;-50
2021/01/23 03:19:57;;;;;;;20.73;8.85;;;;;;;-0.22;85.98;98992.38;4973776;28;20477;-52
2021/01/23 03:22:23;;;;;;;16.63;8.20;;;;;;;-0.25;85.91;98993.00;4986844;28;20049;-51
2021/01/23 03:24:50;;;;;;;17.17;8.02;;;;;;;-0.27;85.88;98989.81;4976126;28;20054;-52
2021/01/23 03:27:19;;;;;;;13.75;7.63;;;;;;;-0.25;86.15;98993.00;4979411;28;20093;-49
2021/01/23 03:29:45;;;;;;;14.05;6.82;;;;;;;-0.26;85.83;98991.38;4981876;28;20050;-51
2021/01/23 03:32:11;;;;;;;13.32;7.70;;;;;;;-0.26;85.73;99003.06;4993035;28;20057;-50
2021/01/23 03:34:39;;;;;;;15.32;7.38;;;;;;;-0.27;85.75;98995.25;4994319;28;20088;-53
2021/01/23 03:37:05;;;;;;;10.60;6.80;;;;;;;-0.33;86.04;99002.75;4983143;28;20134;-51
2021/01/23 03:39:33;;;;;;;11.10;5.57;;;;;;;-0.30;85.76;98991.25;4988520;28;20046;-52
2021/01/23 03:41:59;;;;;;;12.27;5.75;;;;;;;-0.30;86.02;98999.41;4993815;28;20512;-52
2021/01/23 03:44:26;;;;;;;15.57;7.45;;;;;;;-0.31;85.72;98995.06;4977344;28;20734;-51
2021/01/23 03:46:52;;;;;;;10.32;6.55;;;;;;;-0.32;85.88;99003.56;4995290;28;20443;-51
2021/01/23 03:49:19;;;;;;;9.93;6.15;;;;;;;-0.31;85.67;98995.06;4994413;28;20049;-50
2021/01/23 03:51:45;;;;;;;14.02;6.72;;;;;;;-0.32;85.87;98998.13;4994330;28;20089;-52
2021/01/23 03:54:11;;;;;;;11.75;6.70;;;;;;;-0.33;85.86;98996.50;4995040;28;20444;-52
2021/01/23 03:56:39;;;;;;;12.90;7.10;;;;;;;-0.36;85.80;98999.84;4994242;28;20050;-50
2021/01/23 03:59:05;;;;;;;11.10;6.22;;;;;;;-0.42;86.06;99003.81;4962866;28;20554;-51
2021/01/23 04:01:32;;;;;;;11.05;5.68;;;;;;;-0.41;86.09;99008.97;4989404;28;20393;-52
2021/01/23 04:04:00;;;;;;;17.90;7.00;;;;;;;-0.45;85.98;99010.69;4994830;28;20042;-52
2021/01/23 04:06:26;;;;;;;11.15;5.93;;;;;;;-0.46;86.33;99011.00;4994653;28;20046;-53
2021/01/23 04:08:53;;;;;;;10.65;6.20;;;;;;;-0.46;85.99;99021.88;4994312;28;20472;-55
2021/01/23 04:11:19;;;;;;;10.65;6.38;;;;;;;-0.48;86.12;99005.09;4994470;28;20116;-51
2021/01/23 04:13:45;;;;;;;9.93;6.50;;;;;;;-0.48;86.19;99010.53;4994416;28;20141;-52
2021/01/23 04:16:12;;;;;;;15.30;7.43;;;;;;;-0.52;86.04;99014.97;4978338;28;20050;-51
2021/01/23 04:18:39;;;;;;;11.70;6.40;;;;;;;-0.57;86.31;99021.38;4984106;28;20054;-52
2021/01/23 04:21:05;;;;;;;9.52;5.72;;;;;;;-0.60;86.11;99016.56;4994242;28;20134;-52
2021/01/23 04:23:33;;;;;;;12.05;6.28;;;;;;;-0.56;86.65;99024.91;4976848;28;20050;-51
2021/01/23 04:26:00;;;;;;;9.35;5.30;;;;;;;-0.56;86.63;99028.41;4994116;28;20050;-50
2021/01/23 04:28:27;;;;;;;10.07;5.85;;;;;;;-0.53;86.66;99019.59;4976115;28;20504;-49
2021/01/23 04:30:53;;;;;;;10.20;5.13;;;;;;;-0.47;86.67;99017.56;4994630;28;20152;-51
2021/01/23 04:33:20;;;;;;;9.85;5.38;;;;;;;-0.51;86.66;99022.03;4983171;28;20061;-52
2021/01/23 04:35:46;;;;;;;8.57;5.03;;;;;;;-0.50;86.59;99026.38;4992772;28;20047;-49
2021/01/23 04:38:12;;;;;;;11.38;5.68;;;;;;;-0.52;86.46;99014.97;4991286;28;20066;-49
2021/01/23 04:40:39;;;;;;;10.20;4.80;;;;;;;-0.57;86.68;99018.66;4994021;28;20050;-54
2021/01/23 04:43:05;;;;;;;8.00;5.35;;;;;;;-0.58;86.53;99021.69;4993008;28;20496;-53
2021/01/23 04:45:31;;;;;;;11.02;5.68;;;;;;;-0.59;86.11;99025.50;4993637;28;20050;-50
2021/01/23 04:47:59;;;;;;;12.40;5.40;;;;;;;-0.59;86.40;99025.50;4994003;28;20046;-55
2021/01/23 04:50:25;;;;;;;10.82;5.57;;;;;;;-0.60;86.45;99013.84;4990882;28;20062;-49
2021/01/23 04:52:52;;;;;;;12.65;5.65;;;;;;;-0.59;86.58;99009.22;4993262;28;20047;-49
2021/01/23 04:55:19;;;;;;;10.77;6.13;;;;;;;-0.58;86.37;99019.75;4994187;28;20081;-54
2021/01/23 04:57:45;;;;;;;8.73;5.30;;;;;;;-0.57;86.76;99015.13;4993746;28;20085;-49
2021/01/23 05:00:12;;;;;;;14.98;7.90;;;;;;;-0.54;86.50;99017.22;4992973;28;20129;-52
2021/01/23 05:02:39;;;;;;;9.15;5.80;;;;;;;-0.55;86.72;99026.47;4992887;28;20046;-54
2021/01/23 05:05:08;;;;;;;15.38;6.10;;;;;;;-0.55;86.50;99026.47;4993746;28;20054;-53
2021/01/23 05:07:41;;;;;;;10.93;5.40;;;;;;;-0.58;86.49;99024.41;4992335;28;20097;-52
2021/01/23 05:10:16;;;;;;;9.45;5.13;;;;;;;-0.62;86.70;99035.91;4993392;28;20440;-52
2021/01/23 05:12:46;;;;;;;9.13;5.45;;;;;;;-0.64;86.65;99032.69;4993070;28;20046;-51
2021/01/23 05:15:33;;;;;;;10.77;5.38;;;;;;;-0.65;86.84;99028.38;4994033;28;20084;-52
2021/01/23 05:18:06;;;;;;;9.15;5.80;;;;;;;-0.63;86.75;99026.13;4992634;28;20042;-53
2021/01/23 05:20:38;;;;;;;8.18;5.53;;;;;;;-0.57;86.89;99036.88;4975205;28;20042;-50
2021/01/23 05:23:19;;;;;;;11.07;5.60;;;;;;;-0.52;86.99;99036.72;4992151;28;20395;-50
2021/01/23 05:25:51;;;;;;;8.80;5.13;;;;;;;-0.46;87.11;99024.59;4992842;28;20129;-53
2021/01/23 05:28:32;;;;;;;11.73;5.70;;;;;;;-0.44;86.67;99027.81;4993336;28;20077;-51
2021/01/23 05:31:00;;;;;;;11.02;5.50;;;;;;;-0.42;86.73;99031.81;4976052;28;20574;-53
2021/01/23 05:33:32;;;;;;;11.63;5.65;;;;;;;-0.38;86.76;99032.00;4975334;28;20485;-52
2021/01/23 05:36:08;;;;;;;11.23;5.85;;;;;;;-0.36;86.77;99027.03;4988774;28;20133;-50
2021/01/23 05:38:40;;;;;;;10.90;5.68;;;;;;;-0.37;86.91;99039.81;4986941;28;20117;-54
2021/01/23 05:41:06;;;;;;;10.07;5.95;;;;;;;-0.37;87.30;99034.38;4992183;28;20077;-53
2021/01/23 05:43:32;;;;;;;12.73;5.53;;;;;;;-0.34;86.94;99030.22;4975323;28;20492;-55
2021/01/23 05:46:20;;;;;;;6.90;4.65;;;;;;;-0.33;86.92;99040.00;4992432;28;20340;-53
2021/01/23 05:48:49;;;;;;;11.05;5.13;;;;;;;-0.35;87.03;99031.38;4982290;28;20046;-55
2021/01/23 05:51:18;;;;;;;9.57;4.97;;;;;;;-0.30;86.95;99037.47;4990834;28;20077;-54
2021/01/23 05:53:45;;;;;;;14.30;5.30;;;;;;;-0.29;87.01;99044.47;4991292;28;20092;-54
2021/01/23 05:56:12;;;;;;;8.30;5.38;;;;;;;-0.24;87.09;99044.34;4990859;28;20496;-53
2021/01/23 05:58:44;;;;;;;10.35;5.15;;;;;;;-0.21;86.95;99042.91;4973473;28;20115;-51
2021/01/23 06:01:14;;;;;;;9.77;5.50;;;;;;;-0.22;86.83;99044.84;4991815;28;20078;-51
2021/01/23 06:03:43;;;;;;;6.10;4.38;;;;;;;-0.27;86.83;99038.75;4984209;28;20082;-54
2021/01/23 06:06:10;;;;;;;9.07;4.30;;;;;;;-0.28;87.14;99031.69;4990269;28;20054;-56
2021/01/23 06:08:47;;;;;;;10.20;4.05;;;;;;;-0.33;86.95;99035.38;4992604;28;20076;-52
2021/01/23 06:11:19;;;;;;;9.20;4.25;;;;;;;-0.35;86.75;99026.72;4992164;28;20042;-54
2021/01/23 06:13:50;;;;;;;6.93;5.05;;;;;;;-0.33;86.61;99045.44;4987300;28;20054;-52
2021/01/23 06:16:38;;;;;;;7.20;4.38;;;;;;;-0.32;86.94;99036.19;4991809;28;20392;-52
2021/01/23 06:19:04;;;;;;;8.75;3.90;;;;;;;-0.30;86.83;99042.09;4974203;28;20141;-53
2021/01/23 06:21:52;;;;;;;7.63;3.95;;;;;;;-0.34;87.00;99043.81;4991617;28;20054;-55
2021/01/23 06:24:30;;;;;;;9.52;3.75;;;;;;;-0.36;87.04;99046.06;4991808;28;20050;-52
2021/01/23 06:26:57;;;;;;;6.68;3.60;;;;;;;-0.39;86.94;99043.97;4992069;28;20100;-52
2021/01/23 06:29:31;;;;;;;6.22;3.20;;;;;;;-0.37;86.91;99049.91;4974189;28;20069;-56
2021/01/23 06:31:57;;;;;;;9.95;3.70;;;;;;;-0.40;86.91;99053.25;4991451;28;20050;-52
2021/01/23 06:34:26;;;;;;;5.97;4.07;;;;;;;-0.42;87.05;99058.19;4990586;28;20034;-52
2021/01/23 06:37:31;;;;;;;5.07;3.10;;;;;;;-0.43;87.23;99051.16;4991935;28;20108;-49
2021/01/23 06:40:10;;;;;;;7.93;3.92;;;;;;;-0.44;87.18;99044.13;4913992;29;20055;-53
2021/01/23 06:42:47;;;;;;;9.65;3.70;;;;;;;-0.39;86.93;99054.84;4931865;29;20047;-55
2021/01/23 06:45:25;;;;;;;7.22;3.53;;;;;;;-0.40;87.17;99056.78;4969143;28;20508;-54
2021/01/23 06:47:56;;;;;;;8.20;3.60;;;;;;;-0.43;87.24;99053.88;4991606;28;20122;-49
2021/01/23 06:50:31;;;;;;;8.40;3.67;;;;;;;-0.45;87.22;99053.41;4991217;28;20157;-54
2021/01/23 06:52:58;;;;;;;12.18;4.18;;;;;;;-0.47;87.18;99055.59;4974226;28;20085;-51
2021/01/23 06:55:45;;;;;;;8.73;4.45;;;;;;;-0.48;87.15;99056.75;4974184;28;20534;-51
2021/01/23 06:58:16;;;;;;;9.27;3.42;;;;;;;-0.54;87.34;99052.56;4979646;28;20120;-54
2021/01/23 07:00:42;;;;;;;10.20;4.43;;;;;;;-0.58;87.27;99049.66;4990917;28;20626;-51
2021/01/23 07:03:13;;;;;;;6.82;3.83;;;;;;;-0.58;87.25;99060.53;4989718;28;20039;-53
2021/01/23 07:06:00;;;;;;;12.05;5.50;;;;;;;-0.60;87.29;99068.19;4990874;28;20039;-53
2021/01/23 07:08:37;;;;;;;9.68;4.55;;;;;;;-0.63;87.33;99072.34;4995353;28;20046;-53
2021/01/23 07:11:06;;;;;;;11.20;6.15;;;;;;;-0.66;87.37;99072.16;4995491;28;20034;-57
2021/01/23 07:13:32;;;;;;;14.20;5.70;;;;;;;-0.68;87.26;99071.66;4995316;28;20129;-52
2021/01/23 07:16:02;;;;;;;17.42;7.97;;;;;;;-0.72;87.45;99082.38;4995354;28;20053;-51
2021/01/23 07:18:28;;;;;;;16.63;7.07;;;;;;;-0.71;87.33;99094.84;4994901;28;20079;-51
2021/01/23 07:20:55;;;;;;;19.90;7.50;;;;;;;-0.70;87.43;99088.28;4995590;28;20136;-54
2021/01/23 07:23:22;;;;;;;19.52;9.00;;;;;;;-0.68;87.36;99087.97;4993928;28;20547;-54
2021/01/23 07:25:50;;;;;;;18.20;9.02;;;;;;;-0.70;86.96;99084.78;4994310;28;20112;-52
2021/01/23 07:28:20;;;;;;;16.70;9.32;;;;;;;-0.69;87.06;99087.16;4995540;28;20386;-56
2021/01/23 07:30:47;;;;;;;17.90;9.98;;;;;;;-0.69;86.97;99091.81;4995748;28;20547;-55
2021/01/23 07:33:35;;;;;;;17.58;8.95;;;;;;;-0.74;87.19;99090.00;4994755;28;20061;-53
2021/01/23 07:36:02;;;;;;;23.40;9.35;;;;;;;-0.73;87.08;99096.25;4994984;28;20067;-53
2021/01/23 07:38:29;;;;;;;20.48;9.30;;;;;;;-0.74;87.07;99100.88;4994118;28;20042;-55
2021/01/23 07:40:56;;;;;;;20.45;9.55;;;;;;;-0.77;87.19;99096.06;4994935;28;20046;-50
2021/01/23 07:43:23;;;;;;;18.58;8.88;;;;;;;-0.78;87.19;99099.09;4993857;28;20042;-53
2021/01/23 07:45:56;;;;;;;20.50;9.40;;;;;;;-0.84;87.17;99106.59;4975448;28;20120;-51
2021/01/23 07:48:23;;;;;;;16.73;9.18;;;;;;;-0.81;87.13;99121.47;4992618;28;20050;-53
2021/01/23 07:50:50;;;;;;;17.33;8.50;;;;;;;-0.82;86.91;99128.03;4991619;28;20034;-52
2021/01/23 07:53:22;;;;;;;17.70;9.40;;;;;;;-0.83;87.34;99118.25;4992176;28;20066;-54
2021/01/23 07:55:49;;;;;;;19.08;9.27;;;;;;;-0.77;87.08;99127.91;4987466;28;20043;-58
2021/01/23 07:58:16;;;;;;;18.85;9.23;;;;;;;-0.74;87.04;99133.50;4974515;28;20133;-54
2021/01/23 08:00:46;;;;;;;17.67;8.27;;;;;;;-0.78;87.02;99135.25;4991788;28;20116;-54
2021/01/23 08:03:13;;;;;;;22.30;9.10;;;;;;;-0.79;86.85;99133.63;4991977;28;20038;-54
2021/01/23 08:05:50;;;;;;;17.25;9.68;;;;;;;-0.86;86.83;99144.13;4991673;28;20083;-54
2021/01/23 08:08:37;;;;;;;15.02;9.40;;;;;;;-0.87;86.93;99149.84;4992084;28;20496;-53
2021/01/23 08:11:06;;;;;;;15.75;7.43;;;;;;;-0.89;86.70;99146.66;4991709;28;20125;-54
2021/01/23 08:13:35;;;;;;;13.57;7.40;;;;;;;-0.90;86.81;99158.66;4994606;28;20069;-54
2021/01/23 08:16:09;;;;;;;20.63;9.85;;;;;;;-0.90;86.67;99153.22;4994388;28;20046;-52
2021/01/23 08:18:36;;;;;;;13.93;7.07;;;;;;;-0.91;86.58;99154.31;4989569;28;20505;-54
2021/01/23 08:21:14;;;;;;;15.90;6.07;;;;;;;-0.92;86.73;99161.66;4977596;28;20516;-53
2021/01/23 08:23:40;;;;;;;13.88;6.75;;;;;;;-0.89;86.60;99157.50;4994284;28;20145;-54
2021/01/23 08:26:07;;;;;;;11.23;6.70;;;;;;;-0.90;86.97;99162.13;4993413;28;20042;-54
2021/01/23 08:28:33;;;;;;;10.77;6.30;;;;;;;-0.91;86.45;99154.31;4993876;28;20685;-55
2021/01/23 08:31:14;;;;;;;16.40;7.70;;;;;;;-0.91;86.58;99155.13;4988324;28;20101;-53
2021/01/23 08:33:41;;;;;;;15.20;7.15;;;;;;;-0.92;86.39;99150.78;4994097;28;20082;-52
2021/01/23 08:36:08;;;;;;;15.70;7.35;;;;;;;-0.92;86.37;99148.06;4994144;28;20124;-53
2021/01/23 08:38:35;;;;;;;14.00;5.03;;;;;;;-0.91;86.42;99146.16;4993691;28;20120;-54
2021/01/23 08:41:03;;;;;;;10.27;5.22;;;;;;;-0.90;86.30;99158.66;4995711;28;20378;-52
2021/01/23 08:43:30;;;;;;;9.15;4.50;;;;;;;-0.89;86.56;99163.75;5013501;28;20053;-54
2021/01/23 08:45:57;;;;;;;16.40;5.00;;;;;;;-0.87;86.32;99164.25;5012854;28;20050;-55
2021/01/23 08:48:23;;;;;;;11.52;4.80;;;;;;;-0.85;86.30;99166.66;4978064;28;20102;-52
2021/01/23 08:50:50;;;;;;;6.25;3.78;;;;;;;-0.85;86.07;99159.28;4993701;28;20057;-53
2021/01/23 08:53:16;;;;;;;9.75;3.72;;;;;;;-0.85;86.46;99162.00;4989418;28;20098;-53
2021/01/23 08:55:42;;;;;;;10.18;5.15;;;;;;;-0.85;86.42;99162.00;4983975;28;20464;-53
2021/01/23 08:58:09;;;;;;;7.47;3.63;;;;;;;-0.85;86.41;99164.72;4976381;28;20055;-53
2021/01/23 09:00:35;;;;;;;8.63;3.67;;;;;;;-0.83;86.27;99159.81;4992620;28;20065;-56
2021/01/23 09:03:05;;;;;;;11.30;3.53;;;;;;;-0.81;86.28;99154.88;4980354;28;20142;-52
2021/01/23 09:05:33;;;;;;;12.57;4.40;;;;;;;-0.80;86.24;99161.91;4985271;28;20042;-52
2021/01/23 09:08:01;;;;;;;18.15;4.93;;;;;;;-0.80;86.12;99155.69;4990456;28;20052;-56
2021/01/23 09:10:27;;;;;;;6.60;2.83;;;;;;;-0.80;86.24;99150.25;4990050;28;20069;-53
2021/01/23 09:12:53;;;;;;;5.75;3.13;;;;;;;-0.78;86.05;99159.69;4991089;28;20512;-50
2021/01/23 09:15:19;;;;;;;6.93;2.58;;;;;;;-0.76;85.83;99162.09;4989621;28;20043;-54
2021/01/23 09:17:46;;;;;;;7.53;3.70;;;;;;;-0.73;86.12;99156.84;4990284;28;20129;-53
2021/01/23 09:20:13;;;;;;;6.03;2.47;;;;;;;-0.70;86.33;99156.22;4990638;28;20113;-52
2021/01/23 09:22:39;;;;;;;7.30;2.75;;;;;;;-0.67;86.10;99169.19;4980898;28;20058;-52
2021/01/23 09:25:06;;;;;;;7.38;4.25;;;;;;;-0.65;85.82;99169.69;4971515;28;20086;-52
2021/01/23 09:27:33;;;;;;;7.05;2.75;;;;;;;-0.64;86.21;99159.63;4988580;28;20097;-50
2021/01/23 09:29:59;;;;;;;3.03;2.10;;;;;;;-0.63;85.81;99169.38;4987393;28;20057;-52
2021/01/23 09:32:29;;;;;;;11.82;3.55;;;;;;;-0.61;85.93;99164.44;4990462;28;20077;-52
2021/01/23 09:34:57;;;;;;;28.75;14.82;;;;;;;-0.60;85.82;99160.59;4989424;28;20046;-50
2021/01/23 09:37:25;;;;;;;6.72;3.03;;;;;;;-0.56;85.77;99166.22;4989830;28;20053;-53
2021/01/23 09:39:52;;;;;;;7.20;2.40;;;;;;;-0.54;85.83;99164.00;4972668;28;20127;-52
2021/01/23 09:42:20;;;;;;;6.63;2.20;;;;;;;-0.53;85.59;99160.16;4971341;28;20058;-55
2021/01/23 09:44:46;;;;;;;7.93;2.17;;;;;;;-0.52;85.59;99162.56;4971531;28;20110;-53
2021/01/23 09:47:14;;;;;;;7.10;1.85;;;;;;;-0.49;85.68;99167.38;4970108;28;20505;-52
2021/01/23 09:49:41;;;;;;;4.82;2.47;;;;;;;-0.47;85.71;99176.03;4969131;28;20039;-53
2021/01/23 09:52:07;;;;;;;5.70;2.25;;;;;;;-0.45;85.56;99173.00;4981852;28;20050;-54
2021/01/23 09:54:33;;;;;;;8.15;2.60;;;;;;;-0.42;85.58;99180.53;4977560;28;20102;-49
2021/01/23 09:57:01;;;;;;;4.70;2.17;;;;;;;-0.40;85.37;99181.03;4989901;28;20078;-51
2021/01/23 09:59:29;;;;;;;4.57;1.98;;;;;;;-0.38;85.10;99181.50;4989800;28;20543;-51
2021/01/23 10:01:55;;;;;;;5.60;1.50;;;;;;;-0.34;85.52;99182.47;4986463;28;20101;-53
2021/01/23 10:04:22;;;;;;;8.32;2.67;;;;;;;-0.31;85.22;99192.75;4990514;28;20046;-49
2021/01/23 10:06:48;;;;;;;6.85;2.42;;;;;;;-0.28;85.19;99183.97;4989051;28;20101;-50
2021/01/23 10:09:16;;;;;;;13.13;1.92;;;;;;;-0.26;85.14;99189.88;4989216;28;20044;-53
2021/01/23 10:11:45;;;;;;;4.55;1.80;;;;;;;-0.24;85.21;99190.41;4980991;28;20822;-54
2021/01/23 10:14:11;;;;;;;5.82;2.75;;;;;;;-0.23;85.14;99187.34;4985711;28;20034;-55
2021/01/23 10:16:39;;;;;;;5.68;2.75;;;;;;;-0.20;85.01;99194.09;4987727;28;20121;-54
2021/01/23 10:19:06;;;;;;;12.50;2.25;;;;;;;-0.16;85.00;99195.09;4988819;28;20129;-53
2021/01/23 10:21:32;;;;;;;9.40;2.40;;;;;;;-0.17;84.79;99199.72;4989364;28;20132;-53
2021/01/23 10:23:59;;;;;;;12.15;2.20;;;;;;;-0.12;84.52;99198.78;4988107;28;20038;-53
2021/01/23 10:26:26;;;;;;;12.93;2.03;;;;;;;-0.10;84.68;99199.25;4985423;28;20042;-55
2021/01/23 10:28:53;;;;;;;4.28;1.83;;;;;;;-0.07;84.79;99195.91;4985167;28;20054;-55
2021/01/23 10:31:19;;;;;;;4.40;1.80;;;;;;;-0.04;84.78;99200.72;4988803;28;20045;-52
2021/01/23 10:33:45;;;;;;;6.72;2.20;;;;;;;0.00;84.85;99196.28;4986093;28;20054;-53
2021/01/23 10:36:12;;;;;;;8.18;2.17;;;;;;;0.03;84.66;99201.06;4981215;28;20053;-52
2021/01/23 10:38:38;;;;;;;7.28;2.20;;;;;;;0.05;84.39;99209.75;4986568;28;20149;-51
2021/01/23 10:41:05;;;;;;;7.80;1.70;;;;;;;0.11;84.55;99205.75;4988291;28;20820;-55
2021/01/23 10:43:32;;;;;;;6.25;1.58;;;;;;;0.14;84.61;99207.84;4989077;28;20061;-56
2021/01/23 10:46:03;;;;;;;4.97;2.22;;;;;;;0.16;84.42;99213.78;4983649;28;20050;-54
2021/01/23 10:48:30;;;;;;;8.23;2.30;;;;;;;0.20;84.24;99216.69;4987878;28;20167;-54
2021/01/23 10:50:57;;;;;;;14.43;2.03;;;;;;;0.24;84.17;99234.00;4988264;28;20093;-51
2021/01/23 10:53:23;;;;;;;4.65;1.95;;;;;;;0.27;84.19;99228.72;4987696;28;20046;-52
2021/01/23 10:55:49;;;;;;;10.75;3.10;;;;;;;0.31;84.14;99229.69;4987763;28;20129;-52
2021/01/23 10:58:18;;;;;;;6.15;2.15;;;;;;;0.32;83.92;99236.72;4988626;28;20061;-53
2021/01/23 11:00:44;;;;;;;9.32;2.40;;;;;;;0.34;84.11;99233.72;4978442;28;20113;-54
2021/01/23 11:03:11;;;;;;;5.70;2.05;;;;;;;0.38;84.10;99230.03;4971205;28;20045;-54
2021/01/23 11:05:38;;;;;;;3.17;1.90;;;;;;;0.42;84.39;99236.47;4984441;28;20054;-51
2021/01/23 11:08:05;;;;;;;10.13;3.38;;;;;;;0.44;83.96;99223.34;4986023;28;20050;-51
2021/01/23 11:10:32;;;;;;;7.50;3.05;;;;;;;0.48;83.87;99218.06;4989190;28;20050;-50
2021/01/23 11:12:58;;;;;;;8.02;2.40;;;;;;;0.51;83.66;99215.50;4989290;28;20074;-51
2021/01/23 11:15:25;;;;;;;7.28;2.83;;;;;;;0.56;83.64;99220.81;4970390;28;20042;-54
2021/01/23 11:17:51;;;;;;;9.10;2.22;;;;;;;0.58;83.17;99210.38;4989144;28;20121;-55
2021/01/23 11:20:18;;;;;;;7.30;2.35;;;;;;;0.63;83.56;99208.66;4987701;28;20046;-57
2021/01/23 11:22:44;;;;;;;8.93;2.70;;;;;;;0.66;83.58;99208.84;4987552;28;20140;-52
2021/01/23 11:25:13;;;;;;;7.60;2.15;;;;;;;0.70;83.54;99204.34;4989007;28;20863;-54
2021/01/23 11:27:39;;;;;;;8.23;1.77;;;;;;;0.74;83.32;99208.03;4987943;28;20105;-52
2021/01/23 11:30:08;;;;;;;6.38;1.95;;;;;;;0.77;83.22;99204.66;4981681;28;20113;-51
2021/01/23 11:32:37;;;;;;;6.53;2.72;;;;;;;0.81;83.17;99215.72;4987778;28;20046;-53
2021/01/23 11:35:05;;;;;;;10.18;2.40;;;;;;;0.84;83.08;99220.53;4986585;28;20038;-54
2021/01/23 11:37:32;;;;;;;6.53;1.65;;;;;;;0.87;82.81;99214.47;4986430;28;20039;-51
2021/01/23 11:39:58;;;;;;;6.40;2.25;;;;;;;0.93;82.91;99213.16;4990030;28;20141;-55